sensor_id;sensor_type;location;lat;lon;timestamp;pressure;altitude;pressure_sealevel;temperature
12854;BMP180;6495;51.808;7.478;2022-08-19T00:00:09;100897.00;;;22.30
12854;BMP180;6495;51.808;7.478;2022-08-19T00:02:37;100898.00;;;22.30
12854;BMP180;6495;51.808;7.478;2022-08-19T00:05:17;100901.00;;;22.20
12854;BMP180;6495;51.808;7.478;2022-08-19T00:07:46;100891.00;;;22.20
12854;BMP180;6495;51.808;7.478;2022-08-19T00:10:17;100899.00;;;22.10
12854;BMP180;6495;51.808;7.478;2022-08-19T00:12:46;100894.00;;;22.10
12854;BMP180;6495;51.808;7.478;2022-08-19T00:15:20;100896.00;;;22.10
12854;BMP180;6495;51.808;7.478;2022-08-19T00:17:49;100900.00;;;22.00
12854;BMP180;6495;51.808;7.478;2022-08-19T00:20:20;100907.00;;;22.00
12854;BMP180;6495;51.808;7.478;2022-08-19T00:22:49;100906.00;;;22.00
12854;BMP180;6495;51.808;7.478;2022-08-19T00:25:19;100911.00;;;21.90
12854;BMP180;6495;51.808;7.478;2022-08-19T00:27:56;100906.00;;;21.80
12854;BMP180;6495;51.808;7.478;2022-08-19T00:30:27;100913.00;;;21.80
12854;BMP180;6495;51.808;7.478;2022-08-19T00:32:55;100907.00;;;21.80
12854;BMP180;6495;51.808;7.478;2022-08-19T00:35:24;100908.00;;;21.80
12854;BMP180;6495;51.808;7.478;2022-08-19T00:37:55;100904.00;;;21.80
12854;BMP180;6495;51.808;7.478;2022-08-19T00:40:23;100905.00;;;21.70
12854;BMP180;6495;51.808;7.478;2022-08-19T00:42:52;100899.00;;;21.70
12854;BMP180;6495;51.808;7.478;2022-08-19T00:45:27;100892.00;;;21.70
12854;BMP180;6495;51.808;7.478;2022-08-19T00:48:00;100889.00;;;21.60
12854;BMP180;6495;51.808;7.478;2022-08-19T00:50:31;100894.00;;;21.60
12854;BMP180;6495;51.808;7.478;2022-08-19T00:53:01;100889.00;;;21.60
12854;BMP180;6495;51.808;7.478;2022-08-19T00:55:32;100891.00;;;21.60
12854;BMP180;6495;51.808;7.478;2022-08-19T00:58:04;100894.00;;;21.60
12854;BMP180;6495;51.808;7.478;2022-08-19T01:00:35;100883.00;;;21.50
12854;BMP180;6495;51.808;7.478;2022-08-19T01:03:09;100884.00;;;21.50
12854;BMP180;6495;51.808;7.478;2022-08-19T01:05:41;100885.00;;;21.40
12854;BMP180;6495;51.808;7.478;2022-08-19T01:08:11;100892.00;;;21.40
12854;BMP180;6495;51.808;7.478;2022-08-19T01:10:45;100890.00;;;21.40
12854;BMP180;6495;51.808;7.478;2022-08-19T01:13:17;100883.00;;;21.40
12854;BMP180;6495;51.808;7.478;2022-08-19T01:15:52;100876.00;;;21.40
12854;BMP180;6495;51.808;7.478;2022-08-19T01:18:25;100873.00;;;21.30
12854;BMP180;6495;51.808;7.478;2022-08-19T01:20:58;100866.00;;;21.30
12854;BMP180;6495;51.808;7.478;2022-08-19T01:23:29;100875.00;;;21.40
12854;BMP180;6495;51.808;7.478;2022-08-19T01:26:14;100877.00;;;21.40
12854;BMP180;6495;51.808;7.478;2022-08-19T01:28:47;100881.00;;;21.30
12854;BMP180;6495;51.808;7.478;2022-08-19T01:31:23;100888.00;;;21.30
12854;BMP180;6495;51.808;7.478;2022-08-19T01:33:55;100892.00;;;21.20
12854;BMP180;6495;51.808;7.478;2022-08-19T01:36:30;100888.00;;;21.10
12854;BMP180;6495;51.808;7.478;2022-08-19T01:39:02;100885.00;;;21.10
12854;BMP180;6495;51.808;7.478;2022-08-19T01:41:32;100880.00;;;21.00
12854;BMP180;6495;51.808;7.478;2022-08-19T01:44:02;100880.00;;;21.00
12854;BMP180;6495;51.808;7.478;2022-08-19T01:46:46;100875.00;;;21.00
12854;BMP180;6495;51.808;7.478;2022-08-19T01:49:16;100878.00;;;21.00
12854;BMP180;6495;51.808;7.478;2022-08-19T01:51:45;100882.00;;;21.00
12854;BMP180;6495;51.808;7.478;2022-08-19T01:54:17;100871.00;;;20.90
12854;BMP180;6495;51.808;7.478;2022-08-19T01:57:00;100880.00;;;20.90
12854;BMP180;6495;51.808;7.478;2022-08-19T01:59:30;100877.00;;;20.90
12854;BMP180;6495;51.808;7.478;2022-08-19T02:01:58;100883.00;;;20.80
12854;BMP180;6495;51.808;7.478;2022-08-19T02:04:26;100883.00;;;20.80
12854;BMP180;6495;51.808;7.478;2022-08-19T02:06:56;100895.00;;;20.80
12854;BMP180;6495;51.808;7.478;2022-08-19T02:09:26;100880.00;;;20.80
12854;BMP180;6495;51.808;7.478;2022-08-19T02:11:54;100880.00;;;20.80
12854;BMP180;6495;51.808;7.478;2022-08-19T02:14:23;100877.00;;;20.80
12854;BMP180;6495;51.808;7.478;2022-08-19T02:16:51;100863.00;;;20.80
12854;BMP180;6495;51.808;7.478;2022-08-19T02:19:19;100864.00;;;20.80
12854;BMP180;6495;51.808;7.478;2022-08-19T02:21:47;100861.00;;;20.70
12854;BMP180;6495;51.808;7.478;2022-08-19T02:24:16;100862.00;;;20.70
12854;BMP180;6495;51.808;7.478;2022-08-19T02:26:45;100859.00;;;20.70
12854;BMP180;6495;51.808;7.478;2022-08-19T02:29:13;100853.00;;;20.60
12854;BMP180;6495;51.808;7.478;2022-08-19T02:31:42;100863.00;;;20.60
12854;BMP180;6495;51.808;7.478;2022-08-19T02:34:10;100862.00;;;20.50
12854;BMP180;6495;51.808;7.478;2022-08-19T02:36:38;100864.00;;;20.50
12854;BMP180;6495;51.808;7.478;2022-08-19T02:39:08;100871.00;;;20.50
12854;BMP180;6495;51.808;7.478;2022-08-19T02:41:36;100873.00;;;20.40
12854;BMP180;6495;51.808;7.478;2022-08-19T02:44:06;100873.00;;;20.40
12854;BMP180;6495;51.808;7.478;2022-08-19T02:46:54;100868.00;;;20.30
12854;BMP180;6495;51.808;7.478;2022-08-19T02:49:22;100868.00;;;20.30
12854;BMP180;6495;51.808;7.478;2022-08-19T02:51:50;100864.00;;;20.20
12854;BMP180;6495;51.808;7.478;2022-08-19T02:54:19;100857.00;;;20.10
12854;BMP180;6495;51.808;7.478;2022-08-19T02:56:47;100860.00;;;20.10
12854;BMP180;6495;51.808;7.478;2022-08-19T02:59:16;100852.00;;;20.10
12854;BMP180;6495;51.808;7.478;2022-08-19T03:01:48;100853.00;;;20.00
12854;BMP180;6495;51.808;7.478;2022-08-19T03:04:18;100855.00;;;20.00
12854;BMP180;6495;51.808;7.478;2022-08-19T03:06:47;100852.00;;;20.00
12854;BMP180;6495;51.808;7.478;2022-08-19T03:09:17;100848.00;;;20.00
12854;BMP180;6495;51.808;7.478;2022-08-19T03:11:47;100859.00;;;20.00
12854;BMP180;6495;51.808;7.478;2022-08-19T03:14:20;100857.00;;;20.00
12854;BMP180;6495;51.808;7.478;2022-08-19T03:16:51;100858.00;;;20.00
12854;BMP180;6495;51.808;7.478;2022-08-19T03:19:20;100856.00;;;20.00
12854;BMP180;6495;51.808;7.478;2022-08-19T03:21:49;100860.00;;;20.00
12854;BMP180;6495;51.808;7.478;2022-08-19T03:24:19;100865.00;;;20.00
12854;BMP180;6495;51.808;7.478;2022-08-19T03:26:52;100862.00;;;20.00
12854;BMP180;6495;51.808;7.478;2022-08-19T03:29:25;100865.00;;;20.00
12854;BMP180;6495;51.808;7.478;2022-08-19T03:31:58;100872.00;;;20.00
12854;BMP180;6495;51.808;7.478;2022-08-19T03:34:31;100866.00;;;20.00
12854;BMP180;6495;51.808;7.478;2022-08-19T03:37:05;100861.00;;;19.90
12854;BMP180;6495;51.808;7.478;2022-08-19T03:39:36;100853.00;;;19.90
12854;BMP180;6495;51.808;7.478;2022-08-19T03:42:05;100851.00;;;19.90
12854;BMP180;6495;51.808;7.478;2022-08-19T03:44:55;100854.00;;;19.80
12854;BMP180;6495;51.808;7.478;2022-08-19T03:47:25;100852.00;;;19.80
12854;BMP180;6495;51.808;7.478;2022-08-19T03:49:53;100863.00;;;19.70
12854;BMP180;6495;51.808;7.478;2022-08-19T03:52:21;100876.00;;;19.70
12854;BMP180;6495;51.808;7.478;2022-08-19T03:54:49;100881.00;;;19.80
12854;BMP180;6495;51.808;7.478;2022-08-19T03:57:18;100879.00;;;19.80
12854;BMP180;6495;51.808;7.478;2022-08-19T03:59:50;100882.00;;;19.80
12854;BMP180;6495;51.808;7.478;2022-08-19T04:02:19;100874.00;;;19.80
12854;BMP180;6495;51.808;7.478;2022-08-19T04:04:48;100873.00;;;19.80
12854;BMP180;6495;51.808;7.478;2022-08-19T04:07:16;100872.00;;;19.80
12854;BMP180;6495;51.808;7.478;2022-08-19T04:09:48;100864.00;;;19.80
12854;BMP180;6495;51.808;7.478;2022-08-19T04:12:17;100861.00;;;19.80
12854;BMP180;6495;51.808;7.478;2022-08-19T04:14:47;100863.00;;;19.70
12854;BMP180;6495;51.808;7.478;2022-08-19T04:17:15;100861.00;;;19.70
12854;BMP180;6495;51.808;7.478;2022-08-19T04:19:44;100868.00;;;19.70
12854;BMP180;6495;51.808;7.478;2022-08-19T04:22:13;100865.00;;;19.60
12854;BMP180;6495;51.808;7.478;2022-08-19T04:24:41;100866.00;;;19.60
12854;BMP180;6495;51.808;7.478;2022-08-19T04:27:09;100870.00;;;19.60
12854;BMP180;6495;51.808;7.478;2022-08-19T04:29:37;100870.00;;;19.60
12854;BMP180;6495;51.808;7.478;2022-08-19T04:32:06;100868.00;;;19.60
12854;BMP180;6495;51.808;7.478;2022-08-19T04:34:37;100880.00;;;19.60
12854;BMP180;6495;51.808;7.478;2022-08-19T04:37:27;100874.00;;;19.70
12854;BMP180;6495;51.808;7.478;2022-08-19T04:40:04;100873.00;;;19.60
12854;BMP180;6495;51.808;7.478;2022-08-19T04:42:50;100871.00;;;19.60
12854;BMP180;6495;51.808;7.478;2022-08-19T04:45:20;100873.00;;;19.60
12854;BMP180;6495;51.808;7.478;2022-08-19T04:47:49;100878.00;;;19.60
12854;BMP180;6495;51.808;7.478;2022-08-19T04:50:42;100875.00;;;19.60
12854;BMP180;6495;51.808;7.478;2022-08-19T04:53:11;100880.00;;;19.50
12854;BMP180;6495;51.808;7.478;2022-08-19T04:55:41;100882.00;;;19.60
12854;BMP180;6495;51.808;7.478;2022-08-19T04:58:09;100883.00;;;19.50
12854;BMP180;6495;51.808;7.478;2022-08-19T05:00:38;100884.00;;;19.50
12854;BMP180;6495;51.808;7.478;2022-08-19T05:03:07;100885.00;;;19.50
12854;BMP180;6495;51.808;7.478;2022-08-19T05:05:40;100881.00;;;19.40
12854;BMP180;6495;51.808;7.478;2022-08-19T05:08:13;100876.00;;;19.40
12854;BMP180;6495;51.808;7.478;2022-08-19T05:10:57;100887.00;;;19.40
12854;BMP180;6495;51.808;7.478;2022-08-19T05:13:26;100887.00;;;19.40
12854;BMP180;6495;51.808;7.478;2022-08-19T05:15:55;100901.00;;;19.40
12854;BMP180;6495;51.808;7.478;2022-08-19T05:18:25;100902.00;;;19.40
12854;BMP180;6495;51.808;7.478;2022-08-19T05:21:15;100896.00;;;19.40
12854;BMP180;6495;51.808;7.478;2022-08-19T05:24:04;100909.00;;;19.40
12854;BMP180;6495;51.808;7.478;2022-08-19T05:26:35;100904.00;;;19.40
12854;BMP180;6495;51.808;7.478;2022-08-19T05:29:05;100908.00;;;19.40
12854;BMP180;6495;51.808;7.478;2022-08-19T05:31:37;100907.00;;;19.40
12854;BMP180;6495;51.808;7.478;2022-08-19T05:34:08;100910.00;;;19.40
12854;BMP180;6495;51.808;7.478;2022-08-19T05:36:47;100904.00;;;19.40
12854;BMP180;6495;51.808;7.478;2022-08-19T05:39:20;100897.00;;;19.40
12854;BMP180;6495;51.808;7.478;2022-08-19T05:41:51;100901.00;;;19.40
12854;BMP180;6495;51.808;7.478;2022-08-19T05:44:20;100903.00;;;19.40
12854;BMP180;6495;51.808;7.478;2022-08-19T05:46:49;100907.00;;;19.50
12854;BMP180;6495;51.808;7.478;2022-08-19T05:49:22;100902.00;;;19.50
12854;BMP180;6495;51.808;7.478;2022-08-19T05:51:50;100904.00;;;19.40
12854;BMP180;6495;51.808;7.478;2022-08-19T05:54:21;100903.00;;;19.40
12854;BMP180;6495;51.808;7.478;2022-08-19T05:56:51;100895.00;;;19.50
12854;BMP180;6495;51.808;7.478;2022-08-19T05:59:21;100900.00;;;19.50
12854;BMP180;6495;51.808;7.478;2022-08-19T06:01:53;100904.00;;;19.50
12854;BMP180;6495;51.808;7.478;2022-08-19T06:04:24;100905.00;;;19.60
12854;BMP180;6495;51.808;7.478;2022-08-19T06:06:54;100900.00;;;19.60
12854;BMP180;6495;51.808;7.478;2022-08-19T06:09:24;100900.00;;;19.60
12854;BMP180;6495;51.808;7.478;2022-08-19T06:11:55;100887.00;;;19.60
12854;BMP180;6495;51.808;7.478;2022-08-19T06:14:30;100895.00;;;19.60
12854;BMP180;6495;51.808;7.478;2022-08-19T06:16:59;100900.00;;;19.50
12854;BMP180;6495;51.808;7.478;2022-08-19T06:19:33;100901.00;;;19.50
12854;BMP180;6495;51.808;7.478;2022-08-19T06:22:07;100904.00;;;19.60
12854;BMP180;6495;51.808;7.478;2022-08-19T06:24:38;100904.00;;;19.60
12854;BMP180;6495;51.808;7.478;2022-08-19T06:27:06;100901.00;;;19.70
12854;BMP180;6495;51.808;7.478;2022-08-19T06:29:34;100908.00;;;19.70
12854;BMP180;6495;51.808;7.478;2022-08-19T06:32:03;100906.00;;;19.80
12854;BMP180;6495;51.808;7.478;2022-08-19T06:34:34;100912.00;;;19.90
12854;BMP180;6495;51.808;7.478;2022-08-19T06:37:03;100905.00;;;20.00
12854;BMP180;6495;51.808;7.478;2022-08-19T06:39:37;100908.00;;;20.00
12854;BMP180;6495;51.808;7.478;2022-08-19T06:42:07;100898.00;;;20.10
12854;BMP180;6495;51.808;7.478;2022-08-19T06:44:41;100898.00;;;20.20
12854;BMP180;6495;51.808;7.478;2022-08-19T06:47:19;100915.00;;;20.20
12854;BMP180;6495;51.808;7.478;2022-08-19T06:49:55;100901.00;;;20.30
12854;BMP180;6495;51.808;7.478;2022-08-19T06:52:29;100903.00;;;20.30
12854;BMP180;6495;51.808;7.478;2022-08-19T06:55:03;100893.00;;;20.40
12854;BMP180;6495;51.808;7.478;2022-08-19T06:57:33;100901.00;;;20.40
12854;BMP180;6495;51.808;7.478;2022-08-19T07:00:03;100891.00;;;20.50
12854;BMP180;6495;51.808;7.478;2022-08-19T07:02:38;100897.00;;;20.70
12854;BMP180;6495;51.808;7.478;2022-08-19T07:05:08;100886.00;;;20.90
12854;BMP180;6495;51.808;7.478;2022-08-19T07:07:37;100899.00;;;21.10
12854;BMP180;6495;51.808;7.478;2022-08-19T07:10:10;100901.00;;;21.30
12854;BMP180;6495;51.808;7.478;2022-08-19T07:12:38;100896.00;;;21.40
12854;BMP180;6495;51.808;7.478;2022-08-19T07:15:08;100896.00;;;21.40
12854;BMP180;6495;51.808;7.478;2022-08-19T07:17:41;100897.00;;;21.50
12854;BMP180;6495;51.808;7.478;2022-08-19T07:20:11;100896.00;;;21.60
12854;BMP180;6495;51.808;7.478;2022-08-19T07:22:40;100901.00;;;21.60
12854;BMP180;6495;51.808;7.478;2022-08-19T07:25:10;100900.00;;;21.70
12854;BMP180;6495;51.808;7.478;2022-08-19T07:27:39;100903.00;;;21.80
12854;BMP180;6495;51.808;7.478;2022-08-19T07:30:12;100911.00;;;21.90
12854;BMP180;6495;51.808;7.478;2022-08-19T07:32:41;100911.00;;;22.00
12854;BMP180;6495;51.808;7.478;2022-08-19T07:35:09;100912.00;;;22.10
12854;BMP180;6495;51.808;7.478;2022-08-19T07:37:38;100914.00;;;22.20
12854;BMP180;6495;51.808;7.478;2022-08-19T07:40:13;100916.00;;;22.40
12854;BMP180;6495;51.808;7.478;2022-08-19T07:42:41;100920.00;;;22.50
12854;BMP180;6495;51.808;7.478;2022-08-19T07:45:10;100931.00;;;22.70
12854;BMP180;6495;51.808;7.478;2022-08-19T07:47:38;100939.00;;;22.70
12854;BMP180;6495;51.808;7.478;2022-08-19T07:50:17;100930.00;;;22.80
12854;BMP180;6495;51.808;7.478;2022-08-19T07:52:48;100934.00;;;22.90
12854;BMP180;6495;51.808;7.478;2022-08-19T07:55:23;100936.00;;;22.90
12854;BMP180;6495;51.808;7.478;2022-08-19T07:58:12;100943.00;;;23.00
12854;BMP180;6495;51.808;7.478;2022-08-19T08:00:41;100936.00;;;23.10
12854;BMP180;6495;51.808;7.478;2022-08-19T08:03:10;100940.00;;;23.20
12854;BMP180;6495;51.808;7.478;2022-08-19T08:05:38;100945.00;;;23.40
12854;BMP180;6495;51.808;7.478;2022-08-19T08:08:24;100950.00;;;23.40
12854;BMP180;6495;51.808;7.478;2022-08-19T08:11:18;100959.00;;;23.50
12854;BMP180;6495;51.808;7.478;2022-08-19T08:13:49;100954.00;;;23.60
12854;BMP180;6495;51.808;7.478;2022-08-19T08:16:33;100961.00;;;23.80
12854;BMP180;6495;51.808;7.478;2022-08-19T08:19:06;100972.00;;;23.90
12854;BMP180;6495;51.808;7.478;2022-08-19T08:21:52;100971.00;;;24.00
12854;BMP180;6495;51.808;7.478;2022-08-19T08:24:20;100968.00;;;24.20
12854;BMP180;6495;51.808;7.478;2022-08-19T08:26:57;100966.00;;;24.30
12854;BMP180;6495;51.808;7.478;2022-08-19T08:29:26;100979.00;;;24.30
12854;BMP180;6495;51.808;7.478;2022-08-19T08:32:01;100968.00;;;24.40
12854;BMP180;6495;51.808;7.478;2022-08-19T08:34:40;100971.00;;;24.50
12854;BMP180;6495;51.808;7.478;2022-08-19T08:37:08;100969.00;;;24.60
12854;BMP180;6495;51.808;7.478;2022-08-19T08:39:37;100979.00;;;24.70
12854;BMP180;6495;51.808;7.478;2022-08-19T08:42:15;100977.00;;;24.80
12854;BMP180;6495;51.808;7.478;2022-08-19T08:44:59;100974.00;;;24.90
12854;BMP180;6495;51.808;7.478;2022-08-19T08:47:37;100978.00;;;25.00
12854;BMP180;6495;51.808;7.478;2022-08-19T08:50:14;100984.00;;;25.20
12854;BMP180;6495;51.808;7.478;2022-08-19T08:52:48;100982.00;;;25.30
12854;BMP180;6495;51.808;7.478;2022-08-19T08:55:24;100973.00;;;25.40
12854;BMP180;6495;51.808;7.478;2022-08-19T08:58:09;100976.00;;;25.50
12854;BMP180;6495;51.808;7.478;2022-08-19T09:00:44;100971.00;;;25.50
12854;BMP180;6495;51.808;7.478;2022-08-19T09:03:19;100976.00;;;25.50
12854;BMP180;6495;51.808;7.478;2022-08-19T09:06:00;100968.00;;;25.60
12854;BMP180;6495;51.808;7.478;2022-08-19T09:08:45;100972.00;;;25.80
12854;BMP180;6495;51.808;7.478;2022-08-19T09:11:24;100966.00;;;25.80
12854;BMP180;6495;51.808;7.478;2022-08-19T09:14:25;100964.00;;;25.80
12854;BMP180;6495;51.808;7.478;2022-08-19T09:17:19;100966.00;;;25.80
12854;BMP180;6495;51.808;7.478;2022-08-19T09:19:58;100964.00;;;25.90
12854;BMP180;6495;51.808;7.478;2022-08-19T09:22:27;100965.00;;;25.90
12854;BMP180;6495;51.808;7.478;2022-08-19T09:24:56;100959.00;;;26.10
12854;BMP180;6495;51.808;7.478;2022-08-19T09:27:26;100962.00;;;26.10
12854;BMP180;6495;51.808;7.478;2022-08-19T09:30:22;100961.00;;;26.10
12854;BMP180;6495;51.808;7.478;2022-08-19T09:32:51;100965.00;;;26.20
12854;BMP180;6495;51.808;7.478;2022-08-19T09:35:23;100963.00;;;26.20
12854;BMP180;6495;51.808;7.478;2022-08-19T09:37:55;100970.00;;;26.30
12854;BMP180;6495;51.808;7.478;2022-08-19T09:40:27;100973.00;;;26.40
12854;BMP180;6495;51.808;7.478;2022-08-19T09:43:01;100971.00;;;26.40
12854;BMP180;6495;51.808;7.478;2022-08-19T09:45:40;100962.00;;;26.50
12854;BMP180;6495;51.808;7.478;2022-08-19T09:48:08;100958.00;;;26.70
12854;BMP180;6495;51.808;7.478;2022-08-19T09:50:37;100957.00;;;26.80
12854;BMP180;6495;51.808;7.478;2022-08-19T09:53:19;100957.00;;;26.80
12854;BMP180;6495;51.808;7.478;2022-08-19T09:55:51;100952.00;;;26.80
12854;BMP180;6495;51.808;7.478;2022-08-19T09:58:20;100952.00;;;26.70
12854;BMP180;6495;51.808;7.478;2022-08-19T10:00:54;100957.00;;;26.60
12854;BMP180;6495;51.808;7.478;2022-08-19T10:03:22;100963.00;;;26.60
12854;BMP180;6495;51.808;7.478;2022-08-19T10:05:57;100955.00;;;26.50
12854;BMP180;6495;51.808;7.478;2022-08-19T10:08:30;100961.00;;;26.50
12854;BMP180;6495;51.808;7.478;2022-08-19T10:11:00;100949.00;;;26.50
12854;BMP180;6495;51.808;7.478;2022-08-19T10:13:49;100944.00;;;26.70
12854;BMP180;6495;51.808;7.478;2022-08-19T10:16:22;100949.00;;;26.70
12854;BMP180;6495;51.808;7.478;2022-08-19T10:18:56;100955.00;;;26.80
12854;BMP180;6495;51.808;7.478;2022-08-19T10:21:32;100955.00;;;26.90
12854;BMP180;6495;51.808;7.478;2022-08-19T10:24:04;100957.00;;;27.00
12854;BMP180;6495;51.808;7.478;2022-08-19T10:26:39;100951.00;;;27.10
12854;BMP180;6495;51.808;7.478;2022-08-19T10:29:08;100952.00;;;27.20
12854;BMP180;6495;51.808;7.478;2022-08-19T10:31:39;100947.00;;;27.40
12854;BMP180;6495;51.808;7.478;2022-08-19T10:34:30;100953.00;;;27.60
12854;BMP180;6495;51.808;7.478;2022-08-19T10:36:59;100950.00;;;27.60
12854;BMP180;6495;51.808;7.478;2022-08-19T10:39:29;100951.00;;;27.60
12854;BMP180;6495;51.808;7.478;2022-08-19T10:42:10;100945.00;;;27.60
12854;BMP180;6495;51.808;7.478;2022-08-19T10:44:40;100948.00;;;27.60
12854;BMP180;6495;51.808;7.478;2022-08-19T10:47:11;100946.00;;;27.60
12854;BMP180;6495;51.808;7.478;2022-08-19T10:49:52;100940.00;;;27.50
12854;BMP180;6495;51.808;7.478;2022-08-19T10:52:44;100940.00;;;27.50
12854;BMP180;6495;51.808;7.478;2022-08-19T10:55:19;100938.00;;;27.50
12854;BMP180;6495;51.808;7.478;2022-08-19T10:58:11;100943.00;;;27.40
12854;BMP180;6495;51.808;7.478;2022-08-19T11:00:41;100940.00;;;27.40
12854;BMP180;6495;51.808;7.478;2022-08-19T11:03:11;100947.00;;;27.50
12854;BMP180;6495;51.808;7.478;2022-08-19T11:05:39;100947.00;;;27.70
12854;BMP180;6495;51.808;7.478;2022-08-19T11:08:08;100938.00;;;27.90
12854;BMP180;6495;51.808;7.478;2022-08-19T11:10:51;100943.00;;;28.00
12854;BMP180;6495;51.808;7.478;2022-08-19T11:13:26;100934.00;;;28.20
12854;BMP180;6495;51.808;7.478;2022-08-19T11:16:00;100937.00;;;28.40
12854;BMP180;6495;51.808;7.478;2022-08-19T11:18:39;100946.00;;;28.40
12854;BMP180;6495;51.808;7.478;2022-08-19T11:21:14;100940.00;;;28.50
12854;BMP180;6495;51.808;7.478;2022-08-19T11:23:44;100944.00;;;28.60
12854;BMP180;6495;51.808;7.478;2022-08-19T11:26:15;100936.00;;;28.80
12854;BMP180;6495;51.808;7.478;2022-08-19T11:28:44;100937.00;;;28.80
12854;BMP180;6495;51.808;7.478;2022-08-19T11:31:15;100940.00;;;28.80
12854;BMP180;6495;51.808;7.478;2022-08-19T11:33:45;100939.00;;;28.80
12854;BMP180;6495;51.808;7.478;2022-08-19T11:36:14;100939.00;;;28.80
12854;BMP180;6495;51.808;7.478;2022-08-19T11:38:44;100929.00;;;28.80
12854;BMP180;6495;51.808;7.478;2022-08-19T11:41:18;100940.00;;;28.60
12854;BMP180;6495;51.808;7.478;2022-08-19T11:43:46;100938.00;;;28.60
12854;BMP180;6495;51.808;7.478;2022-08-19T11:46:17;100928.00;;;28.50
12854;BMP180;6495;51.808;7.478;2022-08-19T11:48:47;100931.00;;;28.50
12854;BMP180;6495;51.808;7.478;2022-08-19T11:51:22;100930.00;;;28.70
12854;BMP180;6495;51.808;7.478;2022-08-19T11:53:52;100936.00;;;28.70
12854;BMP180;6495;51.808;7.478;2022-08-19T11:56:22;100925.00;;;28.80
12854;BMP180;6495;51.808;7.478;2022-08-19T11:58:52;100934.00;;;29.00
12854;BMP180;6495;51.808;7.478;2022-08-19T12:01:23;100930.00;;;29.10
12854;BMP180;6495;51.808;7.478;2022-08-19T12:03:55;100926.00;;;29.10
12854;BMP180;6495;51.808;7.478;2022-08-19T12:06:27;100922.00;;;29.20
12854;BMP180;6495;51.808;7.478;2022-08-19T12:08:57;100928.00;;;29.20
12854;BMP180;6495;51.808;7.478;2022-08-19T12:11:27;100921.00;;;29.30
12854;BMP180;6495;51.808;7.478;2022-08-19T12:14:00;100922.00;;;29.30
12854;BMP180;6495;51.808;7.478;2022-08-19T12:16:32;100917.00;;;29.40
12854;BMP180;6495;51.808;7.478;2022-08-19T12:19:08;100918.00;;;29.40
12854;BMP180;6495;51.808;7.478;2022-08-19T12:21:36;100920.00;;;29.50
12854;BMP180;6495;51.808;7.478;2022-08-19T12:24:06;100919.00;;;29.50
12854;BMP180;6495;51.808;7.478;2022-08-19T12:26:35;100915.00;;;29.50
12854;BMP180;6495;51.808;7.478;2022-08-19T12:29:19;100922.00;;;29.60
12854;BMP180;6495;51.808;7.478;2022-08-19T12:31:50;100913.00;;;29.60
12854;BMP180;6495;51.808;7.478;2022-08-19T12:34:20;100914.00;;;29.60
12854;BMP180;6495;51.808;7.478;2022-08-19T12:36:48;100914.00;;;29.60
12854;BMP180;6495;51.808;7.478;2022-08-19T12:39:17;100918.00;;;29.60
12854;BMP180;6495;51.808;7.478;2022-08-19T12:41:45;100923.00;;;29.70
12854;BMP180;6495;51.808;7.478;2022-08-19T12:44:21;100915.00;;;29.70
12854;BMP180;6495;51.808;7.478;2022-08-19T12:46:56;100912.00;;;29.60
12854;BMP180;6495;51.808;7.478;2022-08-19T12:49:27;100915.00;;;29.70
12854;BMP180;6495;51.808;7.478;2022-08-19T12:52:15;100890.00;;;29.70
12854;BMP180;6495;51.808;7.478;2022-08-19T12:54:50;100910.00;;;29.70
12854;BMP180;6495;51.808;7.478;2022-08-19T12:57:22;100909.00;;;29.70
12854;BMP180;6495;51.808;7.478;2022-08-19T13:00:03;100905.00;;;29.80
12854;BMP180;6495;51.808;7.478;2022-08-19T13:02:33;100904.00;;;29.90
12854;BMP180;6495;51.808;7.478;2022-08-19T13:05:10;100898.00;;;29.90
12854;BMP180;6495;51.808;7.478;2022-08-19T13:07:40;100897.00;;;30.00
12854;BMP180;6495;51.808;7.478;2022-08-19T13:10:13;100900.00;;;30.10
12854;BMP180;6495;51.808;7.478;2022-08-19T13:12:43;100894.00;;;30.20
12854;BMP180;6495;51.808;7.478;2022-08-19T13:15:12;100899.00;;;30.20
12854;BMP180;6495;51.808;7.478;2022-08-19T13:17:44;100892.00;;;30.30
12854;BMP180;6495;51.808;7.478;2022-08-19T13:20:18;100891.00;;;30.30
12854;BMP180;6495;51.808;7.478;2022-08-19T13:22:47;100895.00;;;30.40
12854;BMP180;6495;51.808;7.478;2022-08-19T13:25:17;100892.00;;;30.40
12854;BMP180;6495;51.808;7.478;2022-08-19T13:27:48;100883.00;;;30.40
12854;BMP180;6495;51.808;7.478;2022-08-19T13:30:20;100889.00;;;30.40
12854;BMP180;6495;51.808;7.478;2022-08-19T13:33:07;100885.00;;;30.50
12854;BMP180;6495;51.808;7.478;2022-08-19T13:35:49;100886.00;;;30.50
12854;BMP180;6495;51.808;7.478;2022-08-19T13:38:20;100887.00;;;30.50
12854;BMP180;6495;51.808;7.478;2022-08-19T13:41:46;100878.00;;;30.60
12854;BMP180;6495;51.808;7.478;2022-08-19T13:44:16;100877.00;;;30.60
12854;BMP180;6495;51.808;7.478;2022-08-19T13:46:45;100868.00;;;30.70
12854;BMP180;6495;51.808;7.478;2022-08-19T13:49:15;100865.00;;;30.80
12854;BMP180;6495;51.808;7.478;2022-08-19T13:51:44;100864.00;;;30.80
12854;BMP180;6495;51.808;7.478;2022-08-19T13:54:12;100866.00;;;30.80
12854;BMP180;6495;51.808;7.478;2022-08-19T13:56:44;100868.00;;;30.80
12854;BMP180;6495;51.808;7.478;2022-08-19T13:59:12;100870.00;;;30.80
12854;BMP180;6495;51.808;7.478;2022-08-19T14:01:41;100876.00;;;30.70
12854;BMP180;6495;51.808;7.478;2022-08-19T14:04:10;100865.00;;;30.60
12854;BMP180;6495;51.808;7.478;2022-08-19T14:06:38;100859.00;;;30.60
12854;BMP180;6495;51.808;7.478;2022-08-19T14:09:06;100853.00;;;30.50
12854;BMP180;6495;51.808;7.478;2022-08-19T14:11:36;100852.00;;;30.60
12854;BMP180;6495;51.808;7.478;2022-08-19T14:14:06;100857.00;;;30.60
12854;BMP180;6495;51.808;7.478;2022-08-19T14:16:37;100855.00;;;30.60
12854;BMP180;6495;51.808;7.478;2022-08-19T14:19:05;100852.00;;;30.60
12854;BMP180;6495;51.808;7.478;2022-08-19T14:21:34;100853.00;;;30.70
12854;BMP180;6495;51.808;7.478;2022-08-19T14:24:08;100849.00;;;30.70
12854;BMP180;6495;51.808;7.478;2022-08-19T14:26:36;100843.00;;;30.70
12854;BMP180;6495;51.808;7.478;2022-08-19T14:29:06;100852.00;;;30.80
12854;BMP180;6495;51.808;7.478;2022-08-19T14:31:35;100853.00;;;31.00
12854;BMP180;6495;51.808;7.478;2022-08-19T14:34:03;100866.00;;;31.00
12854;BMP180;6495;51.808;7.478;2022-08-19T14:36:33;100854.00;;;31.00
12854;BMP180;6495;51.808;7.478;2022-08-19T14:39:06;100862.00;;;31.10